Time;durP1;ratioP1;P1;durP2;ratioP2;P2;SDS_P1;SDS_P2;PMS_P1;PMS_P2;Temp;Humidity;BMP_temperature;BMP_pressure;BME280_temperature;BME280_humidity;BME280_pressure;Samples;Min_cycle;Max_cycle;Signal;HPM_P1;HPM_P2
2022/03/20 00:00:10;;;;;;;;;;;10.10;55.90;;;;;;5088705;28;19912;-73
2022/03/20 00:02:36;;;;;;;;;;;10.00;55.90;;;;;;5088544;28;20373;-72
2022/03/20 00:05:02;;;;;;;;;;;9.90;55.90;;;;;;5088729;28;19912;-73
2022/03/20 00:07:28;;;;;;;;;;;9.80;55.90;;;;;;5087728;28;19912;-73
2022/03/20 00:09:54;;;;;;;;;;;9.70;56.10;;;;;;5087836;28;19912;-73
2022/03/20 00:12:20;;;;;;;;;;;9.60;56.10;;;;;;5088295;28;19923;-73
2022/03/20 00:14:46;;;;;;;;;;;9.60;56.10;;;;;;5088574;28;19908;-73
2022/03/20 00:17:13;;;;;;;;;;;9.50;56.10;;;;;;5088389;28;19919;-73
2022/03/20 00:19:39;;;;;;;;;;;9.50;56.20;;;;;;5086871;28;19920;-73
2022/03/20 00:22:05;;;;;;;;;;;9.50;56.50;;;;;;5088283;28;20369;-73
2022/03/20 00:24:31;;;;;;;;;;;9.60;56.50;;;;;;5088555;28;20271;-73
2022/03/20 00:26:57;;;;;;;;;;;9.60;56.40;;;;;;5088188;28;19931;-73
2022/03/20 00:29:25;;;;;;;;;;;9.70;56.40;;;;;;5088079;28;19916;-72
2022/03/20 00:31:51;;;;;;;;;;;9.80;56.50;;;;;;5088164;28;19923;-73
2022/03/20 00:34:17;;;;;;;;;;;9.80;56.40;;;;;;5088412;28;20411;-73
2022/03/20 00:36:42;;;;;;;;;;;9.80;56.20;;;;;;5088075;28;19916;-73
2022/03/20 00:39:08;;;;;;;;;;;9.80;56.40;;;;;;5087931;28;19920;-73
2022/03/20 00:41:33;;;;;;;;;;;9.80;56.40;;;;;;5088170;28;20299;-73
2022/03/20 00:43:59;;;;;;;;;;;9.90;56.40;;;;;;5070016;28;19916;-72
2022/03/20 00:46:25;;;;;;;;;;;9.90;56.30;;;;;;5088069;28;19908;-73
2022/03/20 00:48:51;;;;;;;;;;;9.90;56.50;;;;;;5088106;28;20370;-73
2022/03/20 00:51:16;;;;;;;;;;;9.90;56.40;;;;;;5087929;28;19957;-73
2022/03/20 00:53:42;;;;;;;;;;;9.80;56.40;;;;;;5088007;28;19920;-73
2022/03/20 00:56:07;;;;;;;;;;;9.80;56.30;;;;;;5087944;28;19926;-73
2022/03/20 00:58:33;;;;;;;;;;;9.80;56.30;;;;;;5087816;28;19919;-70
2022/03/20 01:00:59;;;;;;;;;;;9.80;56.50;;;;;;5087749;28;19908;-73
2022/03/20 01:03:25;;;;;;;;;;;9.80;56.40;;;;;;5087987;28;19908;-73
2022/03/20 01:05:51;;;;;;;;;;;9.80;56.40;;;;;;5087566;28;19912;-73
2022/03/20 01:08:18;;;;;;;;;;;9.80;56.30;;;;;;5087763;28;19947;-73
2022/03/20 01:10:44;;;;;;;;;;;9.70;56.30;;;;;;5087749;28;19912;-74
2022/03/20 01:13:09;;;;;;;;;;;9.70;56.40;;;;;;5087761;28;19919;-73
2022/03/20 01:15:35;;;;;;;;;;;9.70;56.40;;;;;;5069703;28;19912;-72
2022/03/20 01:18:01;;;;;;;;;;;9.70;56.70;;;;;;5088256;28;19912;-73
2022/03/20 01:20:27;;;;;;;;;;;9.60;56.60;;;;;;5091788;28;20331;-73
2022/03/20 01:22:52;;;;;;;;;;;9.60;56.60;;;;;;5091521;28;19908;-73
2022/03/20 01:25:18;;;;;;;;;;;9.50;56.50;;;;;;5091920;28;19916;-73
2022/03/20 01:27:44;;;;;;;;;;;9.50;56.60;;;;;;5091716;28;19912;-74
2022/03/20 01:30:09;;;;;;;;;;;9.40;56.60;;;;;;5091718;28;19977;-73
2022/03/20 01:32:35;;;;;;;;;;;9.40;56.90;;;;;;5091785;28;19915;-73
2022/03/20 01:35:01;;;;;;;;;;;9.40;57.00;;;;;;5090175;28;19908;-73
2022/03/20 01:37:26;;;;;;;;;;;9.40;57.10;;;;;;5091156;28;19920;-73
2022/03/20 01:39:52;;;;;;;;;;;9.40;57.10;;;;;;5089871;28;19955;-73
2022/03/20 01:42:19;;;;;;;;;;;9.40;57.30;;;;;;5091190;28;19956;-73
2022/03/20 01:44:46;;;;;;;;;;;9.40;57.30;;;;;;5089760;28;20003;-73
2022/03/20 01:47:11;;;;;;;;;;;9.30;57.40;;;;;;5091288;28;20014;-74
2022/03/20 01:49:37;;;;;;;;;;;9.30;57.50;;;;;;5091135;28;20006;-74
2022/03/20 01:52:24;;;;;;;;;;;9.30;57.80;;;;;;5091155;28;20007;-73
2022/03/20 01:54:50;;;;;;;;;;;9.30;57.80;;;;;;5089892;28;20552;-73
2022/03/20 01:57:16;;;;;;;;;;;9.20;57.70;;;;;;5091042;28;19926;-73
2022/03/20 01:59:43;;;;;;;;;;;9.20;57.80;;;;;;5090833;28;20482;-73
2022/03/20 02:02:08;;;;;;;;;;;9.10;57.80;;;;;;5090844;28;19912;-73
2022/03/20 02:04:35;;;;;;;;;;;9.20;57.90;;;;;;5091279;28;19919;-73
2022/03/20 02:07:02;;;;;;;;;;;9.10;57.90;;;;;;5090950;28;19912;-74
2022/03/20 02:09:27;;;;;;;;;;;9.00;57.90;;;;;;5090881;28;19942;-73
2022/03/20 02:11:54;;;;;;;;;;;9.00;58.10;;;;;;5090725;28;19913;-73
2022/03/20 02:14:20;;;;;;;;;;;9.00;58.20;;;;;;5090670;28;19912;-73
2022/03/20 02:16:46;;;;;;;;;;;9.00;58.30;;;;;;5090724;28;19935;-73
2022/03/20 02:19:15;;;;;;;;;;;9.00;58.30;;;;;;5090578;28;19985;-73
2022/03/20 02:21:41;;;;;;;;;;;9.00;58.30;;;;;;5090599;28;19912;-73
2022/03/20 02:24:25;;;;;;;;;;;9.00;58.60;;;;;;5090917;28;20298;-73
2022/03/20 02:26:51;;;;;;;;;;;9.00;58.60;;;;;;5090614;28;19912;-73
2022/03/20 02:29:16;;;;;;;;;;;9.00;58.60;;;;;;5090130;28;19908;-73
2022/03/20 02:31:42;;;;;;;;;;;9.00;58.70;;;;;;5089800;28;19908;-74
2022/03/20 02:34:09;;;;;;;;;;;9.00;58.80;;;;;;5090609;28;19936;-73
2022/03/20 02:36:36;;;;;;;;;;;8.90;58.80;;;;;;5090266;28;19912;-73
2022/03/20 02:39:03;;;;;;;;;;;8.90;59.10;;;;;;5088824;28;19973;-73
2022/03/20 02:41:29;;;;;;;;;;;8.80;59.20;;;;;;5090262;28;19908;-72
2022/03/20 02:43:55;;;;;;;;;;;8.80;59.30;;;;;;5090288;28;19923;-73
2022/03/20 02:46:21;;;;;;;;;;;8.80;59.60;;;;;;5090227;28;20289;-73
2022/03/20 02:48:47;;;;;;;;;;;8.80;59.80;;;;;;5090293;28;19913;-73
2022/03/20 02:51:13;;;;;;;;;;;8.80;59.80;;;;;;5090032;28;20006;-73
2022/03/20 02:53:39;;;;;;;;;;;8.80;60.00;;;;;;5090092;28;19912;-73
2022/03/20 02:56:04;;;;;;;;;;;8.80;60.00;;;;;;5088563;28;19913;-73
2022/03/20 02:58:30;;;;;;;;;;;8.80;60.00;;;;;;5089845;28;19916;-73
2022/03/20 03:00:57;;;;;;;;;;;8.80;60.00;;;;;;5089861;28;19919;-73
2022/03/20 03:03:22;;;;;;;;;;;8.80;60.00;;;;;;5089897;28;19961;-73
2022/03/20 03:05:48;;;;;;;;;;;8.80;60.00;;;;;;5089853;28;19913;-73
2022/03/20 03:11:15;;;;;;;;;;;8.80;59.80;;;;;;5066984;28;20012;-73
2022/03/20 03:13:41;;;;;;;;;;;8.70;59.60;;;;;;5079725;28;19999;-73
2022/03/20 03:16:07;;;;;;;;;;;8.70;59.60;;;;;;5089633;28;19954;-73
2022/03/20 03:18:33;;;;;;;;;;;8.70;59.70;;;;;;5089579;28;19912;-73
2022/03/20 03:20:59;;;;;;;;;;;8.70;59.60;;;;;;5089488;28;20331;-73
2022/03/20 03:23:25;;;;;;;;;;;8.60;59.50;;;;;;5089393;28;20391;-72
2022/03/20 03:25:52;;;;;;;;;;;8.60;59.50;;;;;;5089418;28;20004;-73
2022/03/20 03:28:17;;;;;;;;;;;8.60;59.40;;;;;;5089434;28;19962;-73
2022/03/20 03:30:44;;;;;;;;;;;8.60;59.20;;;;;;5088027;28;19916;-73
2022/03/20 03:33:09;;;;;;;;;;;8.60;59.20;;;;;;5089310;28;19973;-73
2022/03/20 03:35:42;;;;;;;;;;;8.60;59.20;;;;;;5089282;28;20354;-73
2022/03/20 03:38:12;;;;;;;;;;;8.60;59.30;;;;;;5087827;28;19999;-73
2022/03/20 03:40:38;;;;;;;;;;;8.60;59.20;;;;;;5089178;28;19912;-73
2022/03/20 03:43:04;;;;;;;;;;;8.50;59.10;;;;;;5089017;28;19909;-73
2022/03/20 03:45:30;;;;;;;;;;;8.50;59.10;;;;;;5089002;28;20021;-73
2022/03/20 03:47:55;;;;;;;;;;;8.50;59.00;;;;;;5089008;28;19908;-73
2022/03/20 03:50:21;;;;;;;;;;;8.50;59.10;;;;;;5088918;28;19908;-72
2022/03/20 03:52:47;;;;;;;;;;;8.50;59.10;;;;;;5088573;28;20438;-74
2022/03/20 03:55:13;;;;;;;;;;;8.50;59.60;;;;;;5088812;28;19947;-73
2022/03/20 03:57:49;;;;;;;;;;;8.50;59.00;;;;;;5088866;28;19971;-73
2022/03/20 04:00:15;;;;;;;;;;;8.50;59.00;;;;;;5088836;28;19909;-73
2022/03/20 04:02:41;;;;;;;;;;;8.50;59.10;;;;;;5088655;28;20288;-73
2022/03/20 04:05:06;;;;;;;;;;;8.40;59.00;;;;;;5088835;28;19916;-73
2022/03/20 04:07:33;;;;;;;;;;;8.40;59.00;;;;;;5087438;28;19912;-73
2022/03/20 04:10:00;;;;;;;;;;;8.40;59.10;;;;;;5087433;28;19912;-73
2022/03/20 04:12:25;;;;;;;;;;;8.30;59.00;;;;;;5088678;28;19919;-73
2022/03/20 04:14:51;;;;;;;;;;;8.30;59.20;;;;;;5087350;28;19916;-73
2022/03/20 04:17:16;;;;;;;;;;;8.20;59.10;;;;;;5088540;28;20007;-74
2022/03/20 04:19:42;;;;;;;;;;;8.20;59.80;;;;;;5088576;28;19916;-73
2022/03/20 04:22:08;;;;;;;;;;;8.20;59.70;;;;;;5088587;28;19912;-73
2022/03/20 04:24:36;;;;;;;;;;;8.30;60.10;;;;;;5088288;28;19908;-73
2022/03/20 04:27:02;;;;;;;;;;;8.30;60.40;;;;;;5088591;28;20277;-73
2022/03/20 04:29:28;;;;;;;;;;;8.20;60.10;;;;;;5088239;28;20523;-73
2022/03/20 04:31:54;;;;;;;;;;;8.20;60.00;;;;;;5086936;28;19908;-73
2022/03/20 04:34:20;;;;;;;;;;;8.20;60.10;;;;;;5088150;28;19908;-73
2022/03/20 04:36:46;;;;;;;;;;;8.20;60.60;;;;;;5088130;28;19908;-73
2022/03/20 04:39:12;;;;;;;;;;;8.10;60.30;;;;;;5088001;28;19942;-73
2022/03/20 04:41:37;;;;;;;;;;;8.10;60.60;;;;;;5086758;28;19909;-73
2022/03/20 04:44:03;;;;;;;;;;;8.10;60.50;;;;;;5087123;28;19965;-73
2022/03/20 04:46:28;;;;;;;;;;;8.10;60.30;;;;;;5088126;28;19908;-73
2022/03/20 04:59:50;;;;;;;;;;;8.00;60.50;;;;;;5095171;28;19920;-73
2022/03/20 05:02:16;;;;;;;;;;;8.00;60.40;;;;;;5094785;28;19912;-73
2022/03/20 05:04:42;;;;;;;;;;;8.10;60.60;;;;;;5094823;28;20395;-73
2022/03/20 05:07:07;;;;;;;;;;;8.10;60.80;;;;;;5094730;28;19908;-74
2022/03/20 05:15:05;;;;;;;;;;;8.10;60.90;;;;;;5094720;28;20050;-75
2022/03/20 05:17:31;;;;;;;;;;;8.10;61.00;;;;;;5093052;28;20018;-73
2022/03/20 05:19:56;;;;;;;;;;;8.10;61.10;;;;;;5094568;28;19970;-73
2022/03/20 05:22:22;;;;;;;;;;;8.10;61.30;;;;;;5094473;28;19923;-73
2022/03/20 05:24:47;;;;;;;;;;;8.10;61.20;;;;;;5094624;28;20327;-73
2022/03/20 05:27:13;;;;;;;;;;;8.10;61.10;;;;;;5094483;28;19935;-73
2022/03/20 05:29:40;;;;;;;;;;;8.10;61.10;;;;;;5093373;28;19920;-73
2022/03/20 05:32:07;;;;;;;;;;;8.10;61.30;;;;;;5094418;28;19922;-73
2022/03/20 05:34:33;;;;;;;;;;;8.10;61.10;;;;;;5094548;28;19919;-73
2022/03/20 05:36:59;;;;;;;;;;;8.10;61.00;;;;;;5094920;28;19959;-73
2022/03/20 05:39:25;;;;;;;;;;;8.00;60.90;;;;;;5094320;28;19933;-73
2022/03/20 05:41:51;;;;;;;;;;;8.00;60.90;;;;;;5093032;28;19919;-73
2022/03/20 05:44:21;;;;;;;;;;;7.90;61.00;;;;;;5094412;28;19919;-74
2022/03/20 05:46:48;;;;;;;;;;;7.90;60.90;;;;;;5094364;28;19912;-73
2022/03/20 05:49:17;;;;;;;;;;;7.80;61.10;;;;;;5093561;28;20465;-73
2022/03/20 05:51:43;;;;;;;;;;;7.80;61.10;;;;;;5094341;28;19935;-73
2022/03/20 05:54:08;;;;;;;;;;;7.80;61.50;;;;;;5094355;28;20392;-73
2022/03/20 05:59:18;;;;;;;;;;;7.80;61.40;;;;;;5094450;28;20393;-73
2022/03/20 06:01:44;;;;;;;;;;;7.70;61.50;;;;;;5094130;28;19921;-73
2022/03/20 06:04:10;;;;;;;;;;;7.70;61.40;;;;;;5093191;28;19959;-73
2022/03/20 06:06:36;;;;;;;;;;;7.70;61.60;;;;;;5088952;28;19966;-73
2022/03/20 06:09:02;;;;;;;;;;;7.70;61.60;;;;;;5091018;28;19919;-73
2022/03/20 06:11:28;;;;;;;;;;;7.70;61.70;;;;;;5090837;28;20010;-73
2022/03/20 06:13:53;;;;;;;;;;;7.70;61.70;;;;;;5090933;28;19943;-73
2022/03/20 06:16:21;;;;;;;;;;;7.70;61.90;;;;;;5090863;28;20006;-73
2022/03/20 06:18:47;;;;;;;;;;;7.70;62.20;;;;;;5089348;28;19920;-73
2022/03/20 06:21:13;;;;;;;;;;;7.70;62.20;;;;;;5090965;28;20003;-73
2022/03/20 06:23:39;;;;;;;;;;;7.60;61.90;;;;;;5090899;28;19951;-73
2022/03/20 06:26:05;;;;;;;;;;;7.60;61.90;;;;;;5090540;28;19961;-73
2022/03/20 06:28:30;;;;;;;;;;;7.60;61.90;;;;;;5090586;28;20359;-73
2022/03/20 06:30:56;;;;;;;;;;;7.60;62.00;;;;;;5090326;28;19915;-73
2022/03/20 06:33:25;;;;;;;;;;;7.60;62.00;;;;;;5089252;28;19916;-73
2022/03/20 06:35:54;;;;;;;;;;;7.60;62.20;;;;;;5090459;28;20515;-73
2022/03/20 06:38:20;;;;;;;;;;;7.70;62.50;;;;;;5090061;28;19932;-72
2022/03/20 06:40:46;;;;;;;;;;;7.70;62.20;;;;;;5090141;28;19912;-73
2022/03/20 06:43:13;;;;;;;;;;;7.80;62.40;;;;;;5090266;28;19916;-73
2022/03/20 06:45:39;;;;;;;;;;;7.80;62.50;;;;;;5090040;28;19931;-72
2022/03/20 06:48:06;;;;;;;;;;;7.90;62.60;;;;;;5090045;28;19993;-74
2022/03/20 06:50:31;;;;;;;;;;;7.90;62.60;;;;;;5090258;28;19917;-72
2022/03/20 06:53:02;;;;;;;;;;;7.90;62.30;;;;;;5090003;28;19912;-73
2022/03/20 06:55:30;;;;;;;;;;;7.90;62.20;;;;;;5089170;28;20278;-74
2022/03/20 06:57:55;;;;;;;;;;;8.00;62.20;;;;;;5089989;28;20451;-73
2022/03/20 07:00:21;;;;;;;;;;;8.00;62.20;;;;;;5090028;28;19950;-73
2022/03/20 07:02:47;;;;;;;;;;;8.10;62.30;;;;;;5089941;28;20289;-73
2022/03/20 07:05:13;;;;;;;;;;;8.20;62.30;;;;;;5089837;28;19919;-73
2022/03/20 07:07:40;;;;;;;;;;;8.20;62.20;;;;;;5089855;28;19920;-74
2022/03/20 07:10:07;;;;;;;;;;;8.30;62.30;;;;;;5089904;28;19960;-73
2022/03/20 07:12:33;;;;;;;;;;;8.40;62.40;;;;;;5089569;28;19915;-73
2022/03/20 07:14:59;;;;;;;;;;;8.40;62.20;;;;;;5089675;28;19916;-73
2022/03/20 07:17:25;;;;;;;;;;;8.50;62.20;;;;;;5089165;28;19916;-72
2022/03/20 07:19:51;;;;;;;;;;;8.60;62.40;;;;;;5089523;28;19957;-73
2022/03/20 07:22:16;;;;;;;;;;;8.70;62.20;;;;;;5089492;28;19915;-73
2022/03/20 07:24:43;;;;;;;;;;;8.80;62.10;;;;;;5089496;28;20385;-73
2022/03/20 07:29:54;;;;;;;;;;;8.90;62.00;;;;;;5089729;28;19916;-73
2022/03/20 07:32:19;;;;;;;;;;;9.00;61.90;;;;;;5089255;28;20358;-73
2022/03/20 07:34:45;;;;;;;;;;;9.00;61.90;;;;;;5089323;28;19966;-73
2022/03/20 07:37:15;;;;;;;;;;;9.10;61.90;;;;;;5089301;28;20368;-73
2022/03/20 07:39:46;;;;;;;;;;;9.10;61.90;;;;;;5089227;28;19912;-73
2022/03/20 07:42:12;;;;;;;;;;;9.20;62.00;;;;;;5089416;28;19916;-73
2022/03/20 07:44:37;;;;;;;;;;;9.20;62.10;;;;;;5087386;28;19912;-73
2022/03/20 07:47:03;;;;;;;;;;;9.30;62.30;;;;;;5087679;28;19922;-73
2022/03/20 07:49:29;;;;;;;;;;;9.40;62.40;;;;;;5088963;28;20427;-73
2022/03/20 07:51:57;;;;;;;;;;;9.60;62.40;;;;;;5088686;28;19912;-72
2022/03/20 07:54:26;;;;;;;;;;;9.90;62.50;;;;;;5088794;28;19944;-73
2022/03/20 07:56:51;;;;;;;;;;;10.30;62.60;;;;;;5087385;28;19912;-74
2022/03/20 07:59:17;;;;;;;;;;;10.70;62.40;;;;;;5088674;28;19919;-73
2022/03/20 08:01:43;;;;;;;;;;;10.90;62.20;;;;;;5088429;28;19917;-73
2022/03/20 08:04:09;;;;;;;;;;;11.10;61.80;;;;;;5088529;28;19937;-74
2022/03/20 08:06:34;;;;;;;;;;;11.30;61.80;;;;;;5088338;28;19908;-74
2022/03/20 08:09:00;;;;;;;;;;;11.40;61.80;;;;;;5087185;28;20385;-73
2022/03/20 08:11:30;;;;;;;;;;;11.50;61.60;;;;;;5086925;28;19965;-73
2022/03/20 08:13:56;;;;;;;;;;;11.60;61.80;;;;;;5088412;28;20532;-71
2022/03/20 08:16:25;;;;;;;;;;;11.80;61.80;;;;;;5088501;28;19912;-73
2022/03/20 08:18:52;;;;;;;;;;;12.00;61.50;;;;;;5087119;28;19927;-72
2022/03/20 08:21:17;;;;;;;;;;;12.20;61.70;;;;;;5088263;28;19924;-72
2022/03/20 08:23:43;;;;;;;;;;;12.40;61.80;;;;;;5088672;28;19919;-72
2022/03/20 08:26:13;;;;;;;;;;;12.70;62.00;;;;;;5088326;28;20000;-72
2022/03/20 08:28:39;;;;;;;;;;;13.10;62.20;;;;;;5085982;28;20385;-72
2022/03/20 08:31:06;;;;;;;;;;;13.70;62.40;;;;;;5088114;28;19909;-72
2022/03/20 08:33:32;;;;;;;;;;;14.40;61.90;;;;;;5088162;28;19962;-72
2022/03/20 08:35:58;;;;;;;;;;;15.00;61.60;;;;;;5088150;28;19929;-72
2022/03/20 08:38:23;;;;;;;;;;;15.50;61.70;;;;;;5087796;28;19924;-73
2022/03/20 08:40:49;;;;;;;;;;;16.10;61.60;;;;;;5088084;28;19908;-73
2022/03/20 08:43:15;;;;;;;;;;;16.70;61.40;;;;;;5087918;28;19921;-73
2022/03/20 08:45:41;;;;;;;;;;;17.00;60.90;;;;;;5087717;28;20034;-73
2022/03/20 08:48:06;;;;;;;;;;;17.30;59.90;;;;;;5087861;28;19914;-72
2022/03/20 08:50:32;;;;;;;;;;;17.50;60.30;;;;;;5087829;28;19908;-72
2022/03/20 08:52:58;;;;;;;;;;;17.50;60.50;;;;;;5087760;28;20356;-73
2022/03/20 08:55:24;;;;;;;;;;;17.60;60.60;;;;;;5087319;28;19961;-72
2022/03/20 08:57:52;;;;;;;;;;;17.80;60.90;;;;;;5087378;28;19916;-72
2022/03/20 09:00:19;;;;;;;;;;;18.30;60.90;;;;;;5086396;28;20374;-72
2022/03/20 09:02:45;;;;;;;;;;;18.50;59.60;;;;;;5088000;28;19931;-73
2022/03/20 09:05:12;;;;;;;;;;;18.60;60.00;;;;;;5086229;28;19960;-73
2022/03/20 09:07:43;;;;;;;;;;;18.70;60.00;;;;;;5087436;28;19912;-73
2022/03/20 09:10:09;;;;;;;;;;;18.80;60.00;;;;;;5087608;28;19959;-72
2022/03/20 09:12:37;;;;;;;;;;;18.90;59.30;;;;;;5087445;28;20395;-72
2022/03/20 09:15:04;;;;;;;;;;;19.10;58.80;;;;;;5087529;28;19927;-72
2022/03/20 09:20:14;;;;;;;;;;;19.50;58.20;;;;;;5087806;28;20361;-72
2022/03/20 09:22:39;;;;;;;;;;;19.90;56.80;;;;;;5087346;28;19916;-72
2022/03/20 09:25:05;;;;;;;;;;;19.80;56.80;;;;;;5087245;28;20287;-73
2022/03/20 09:27:31;;;;;;;;;;;19.80;55.90;;;;;;5087350;28;19925;-73
2022/03/20 09:29:56;;;;;;;;;;;19.90;56.50;;;;;;5087561;28;19954;-73
2022/03/20 09:32:22;;;;;;;;;;;20.10;56.10;;;;;;5087481;28;19912;-72
2022/03/20 09:34:47;;;;;;;;;;;20.10;56.20;;;;;;5086187;28;19924;-72
2022/03/20 09:37:13;;;;;;;;;;;20.20;56.60;;;;;;5087252;28;19912;-72
2022/03/20 09:39:39;;;;;;;;;;;20.30;55.70;;;;;;5088783;28;19920;-73
2022/03/20 09:42:06;;;;;;;;;;;20.30;55.50;;;;;;5091773;28;19995;-72
2022/03/20 09:44:33;;;;;;;;;;;20.30;55.70;;;;;;5091131;28;20010;-72
2022/03/20 09:46:59;;;;;;;;;;;20.50;55.50;;;;;;5091261;28;19934;-72
2022/03/20 09:49:25;;;;;;;;;;;20.80;55.70;;;;;;5090717;28;19922;-72
2022/03/20 09:51:52;;;;;;;;;;;20.90;56.00;;;;;;5090191;28;19912;-72
2022/03/20 09:54:17;;;;;;;;;;;20.90;54.80;;;;;;5090678;28;19944;-72
2022/03/20 09:56:43;;;;;;;;;;;20.70;54.20;;;;;;5090117;28;19982;-72
2022/03/20 09:59:09;;;;;;;;;;;20.60;53.80;;;;;;5090575;28;19934;-71
2022/03/20 10:01:35;;;;;;;;;;;20.60;54.30;;;;;;5090629;28;19911;-72
2022/03/20 10:04:08;;;;;;;;;;;20.70;54.00;;;;;;5090492;28;19912;-71
2022/03/20 10:06:38;;;;;;;;;;;20.70;53.40;;;;;;5090065;28;20317;-72
2022/03/20 10:09:04;;;;;;;;;;;20.90;53.60;;;;;;5090021;28;19912;-72
2022/03/20 10:11:31;;;;;;;;;;;21.20;54.30;;;;;;5089705;28;19908;-72
2022/03/20 10:14:16;;;;;;;;;;;21.60;54.50;;;;;;5089606;28;19908;-73
2022/03/20 10:17:02;;;;;;;;;;;21.90;53.60;;;;;;5090158;28;20389;-73
2022/03/20 10:19:28;;;;;;;;;;;22.00;53.00;;;;;;5085729;28;19912;-72
2022/03/20 10:21:53;;;;;;;;;;;22.00;52.90;;;;;;5089957;28;19950;-73
2022/03/20 10:24:20;;;;;;;;;;;22.20;53.50;;;;;;5089944;28;19955;-72
2022/03/20 10:26:50;;;;;;;;;;;22.40;52.70;;;;;;5089896;28;20273;-72
2022/03/20 10:29:16;;;;;;;;;;;22.40;52.90;;;;;;5088148;28;19942;-72
2022/03/20 10:31:52;;;;;;;;;;;22.30;52.20;;;;;;5088495;28;20273;-73
2022/03/20 10:34:18;;;;;;;;;;;22.30;52.60;;;;;;5089879;28;19977;-72
2022/03/20 10:36:45;;;;;;;;;;;22.30;52.70;;;;;;5089543;28;19913;-73
2022/03/20 10:39:11;;;;;;;;;;;22.30;53.00;;;;;;5089372;28;19925;-73
2022/03/20 10:41:38;;;;;;;;;;;22.40;53.30;;;;;;5089559;28;19908;-73
2022/03/20 10:44:27;;;;;;;;;;;22.50;52.80;;;;;;5089566;28;19912;-72
2022/03/20 10:46:55;;;;;;;;;;;22.60;52.90;;;;;;5089538;28;20010;-72
2022/03/20 10:49:21;;;;;;;;;;;22.70;51.90;;;;;;5087943;28;20342;-72
2022/03/20 10:51:59;;;;;;;;;;;22.50;50.90;;;;;;5088860;28;20003;-72
2022/03/20 10:54:37;;;;;;;;;;;22.20;51.40;;;;;;5089572;28;19934;-72
2022/03/20 10:57:05;;;;;;;;;;;22.10;51.40;;;;;;5089285;28;20351;-73
2022/03/20 10:59:30;;;;;;;;;;;22.10;52.20;;;;;;5087210;28;20277;-73
2022/03/20 11:01:57;;;;;;;;;;;22.20;52.00;;;;;;5088255;28;20007;-72
2022/03/20 11:04:23;;;;;;;;;;;22.20;51.70;;;;;;5089013;28;19912;-73
2022/03/20 11:06:49;;;;;;;;;;;22.10;51.90;;;;;;5088926;28;19908;-73
2022/03/20 11:09:15;;;;;;;;;;;21.90;51.40;;;;;;5089147;28;19991;-73
2022/03/20 11:11:41;;;;;;;;;;;21.90;51.80;;;;;;5088839;28;19970;-72
2022/03/20 11:14:08;;;;;;;;;;;22.10;51.90;;;;;;5089115;28;19956;-73
2022/03/20 11:16:36;;;;;;;;;;;22.10;51.10;;;;;;5088584;28;19912;-73
2022/03/20 11:19:03;;;;;;;;;;;22.20;51.30;;;;;;5087475;28;19958;-72
2022/03/20 11:21:30;;;;;;;;;;;22.10;51.30;;;;;;5088537;28;19961;-73
2022/03/20 11:23:55;;;;;;;;;;;22.00;51.00;;;;;;5088886;28;19919;-73
2022/03/20 11:26:21;;;;;;;;;;;22.10;51.70;;;;;;5088817;28;19912;-73
2022/03/20 11:28:50;;;;;;;;;;;22.30;51.40;;;;;;5088665;28;19911;-73
2022/03/20 11:31:16;;;;;;;;;;;22.40;51.90;;;;;;5088509;28;19912;-73
2022/03/20 11:33:42;;;;;;;;;;;22.70;51.60;;;;;;5088573;28;19919;-73
2022/03/20 11:36:08;;;;;;;;;;;22.80;51.60;;;;;;5088439;28;20292;-73
2022/03/20 11:38:35;;;;;;;;;;;22.80;51.20;;;;;;5088346;28;20014;-74
2022/03/20 11:41:05;;;;;;;;;;;22.80;51.40;;;;;;5088069;28;19961;-73
2022/03/20 11:43:31;;;;;;;;;;;22.80;51.10;;;;;;5088242;28;20285;-73
2022/03/20 11:46:12;;;;;;;;;;;22.90;51.20;;;;;;5088342;28;19998;-73
2022/03/20 11:48:38;;;;;;;;;;;23.10;51.10;;;;;;5088259;28;19919;-73
2022/03/20 11:51:03;;;;;;;;;;;23.20;50.90;;;;;;5087991;28;19934;-73
2022/03/20 11:53:30;;;;;;;;;;;23.20;50.90;;;;;;5087605;28;19977;-73
2022/03/20 11:55:56;;;;;;;;;;;23.10;50.80;;;;;;5086285;28;20231;-73
2022/03/20 11:58:23;;;;;;;;;;;22.90;50.80;;;;;;5087413;28;19921;-72
2022/03/20 12:01:03;;;;;;;;;;;22.80;50.60;;;;;;5087724;28;19943;-73
2022/03/20 12:03:34;;;;;;;;;;;22.80;50.50;;;;;;5087135;28;19924;-72
2022/03/20 12:06:15;;;;;;;;;;;22.70;50.60;;;;;;5087858;28;19916;-72
2022/03/20 12:08:51;;;;;;;;;;;22.80;50.90;;;;;;5087719;28;19908;-72
2022/03/20 12:11:31;;;;;;;;;;;22.90;51.00;;;;;;5087398;28;19908;-73
2022/03/20 12:14:10;;;;;;;;;;;23.10;51.40;;;;;;5087641;28;19908;-73
2022/03/20 12:16:42;;;;;;;;;;;23.10;51.30;;;;;;5087462;28;19916;-73
2022/03/20 12:19:08;;;;;;;;;;;23.00;51.70;;;;;;5086479;28;20415;-73
2022/03/20 12:21:52;;;;;;;;;;;22.80;51.00;;;;;;5087360;28;19908;-72
2022/03/20 12:24:51;;;;;;;;;;;22.60;51.40;;;;;;5087352;28;20392;-72
2022/03/20 12:27:23;;;;;;;;;;;22.70;51.50;;;;;;5075293;28;19908;-73
2022/03/20 12:29:49;;;;;;;;;;;22.90;50.80;;;;;;5086157;28;20345;-73
2022/03/20 12:32:15;;;;;;;;;;;23.00;51.00;;;;;;5087261;28;20394;-73
2022/03/20 12:34:45;;;;;;;;;;;23.10;50.80;;;;;;5087416;28;19912;-72
2022/03/20 12:37:29;;;;;;;;;;;23.10;50.80;;;;;;5088086;28;20228;-73
2022/03/20 12:39:55;;;;;;;;;;;23.30;50.40;;;;;;5087443;28;19916;-72
2022/03/20 12:42:22;;;;;;;;;;;23.50;50.00;;;;;;5085325;28;20323;-72
2022/03/20 12:44:49;;;;;;;;;;;23.40;49.80;;;;;;5087165;28;20376;-73
2022/03/20 12:47:19;;;;;;;;;;;23.30;49.60;;;;;;5087443;28;20368;-72
2022/03/20 12:49:51;;;;;;;;;;;23.10;50.00;;;;;;5086124;28;20377;-72
2022/03/20 12:52:18;;;;;;;;;;;23.20;49.50;;;;;;5086883;28;19935;-72
2022/03/20 12:54:57;;;;;;;;;;;23.30;50.10;;;;;;5086826;28;19908;-72
2022/03/20 12:57:39;;;;;;;;;;;23.40;50.40;;;;;;5086665;28;19916;-71
2022/03/20 13:00:07;;;;;;;;;;;23.60;50.80;;;;;;5086696;28;20370;-74
2022/03/20 13:02:34;;;;;;;;;;;23.70;50.40;;;;;;5086457;28;19908;-71
2022/03/20 13:05:08;;;;;;;;;;;23.30;50.10;;;;;;5086443;28;19920;-72
2022/03/20 13:07:35;;;;;;;;;;;23.00;49.90;;;;;;5085806;28;19908;-72
2022/03/20 13:10:01;;;;;;;;;;;22.70;49.70;;;;;;5086444;28;19965;-72
2022/03/20 13:12:26;;;;;;;;;;;22.50;50.40;;;;;;5086637;28;19916;-71
2022/03/20 13:14:55;;;;;;;;;;;22.50;49.70;;;;;;5088246;28;19927;-72
2022/03/20 13:17:26;;;;;;;;;;;22.30;49.80;;;;;;5089628;28;20300;-72
2022/03/20 13:19:52;;;;;;;;;;;22.10;49.80;;;;;;5090175;28;19909;-71
2022/03/20 13:22:18;;;;;;;;;;;21.80;50.10;;;;;;5089936;28;19916;-71
2022/03/20 13:24:46;;;;;;;;;;;21.60;50.50;;;;;;5090484;28;19938;-72
2022/03/20 13:27:12;;;;;;;;;;;21.80;50.70;;;;;;5090592;28;20026;-72
2022/03/20 13:29:41;;;;;;;;;;;22.10;50.90;;;;;;5091121;28;19908;-72
2022/03/20 13:32:10;;;;;;;;;;;22.10;50.80;;;;;;5090256;28;19986;-73
2022/03/20 13:34:43;;;;;;;;;;;22.00;50.90;;;;;;5090372;28;19999;-72
2022/03/20 13:37:10;;;;;;;;;;;21.70;50.90;;;;;;5090283;28;19935;-72
2022/03/20 13:39:36;;;;;;;;;;;21.60;51.20;;;;;;5090228;28;19914;-71
2022/03/20 13:42:19;;;;;;;;;;;21.40;51.10;;;;;;5088315;28;19912;-71
2022/03/20 13:44:47;;;;;;;;;;;21.40;51.00;;;;;;5089724;28;19908;-72
2022/03/20 13:47:13;;;;;;;;;;;21.40;51.20;;;;;;5089693;28;19919;-72
2022/03/20 13:49:39;;;;;;;;;;;21.30;50.90;;;;;;5089950;28;19920;-72
2022/03/20 13:52:04;;;;;;;;;;;21.00;50.80;;;;;;5090031;28;19913;-72
2022/03/20 13:54:31;;;;;;;;;;;20.70;51.30;;;;;;5090184;28;19912;-72
2022/03/20 13:57:24;;;;;;;;;;;20.50;51.10;;;;;;5089238;28;19930;-72
2022/03/20 13:59:55;;;;;;;;;;;20.30;50.80;;;;;;5088335;28;19909;-71
2022/03/20 14:02:20;;;;;;;;;;;19.80;50.70;;;;;;5088537;28;19999;-71
2022/03/20 14:04:47;;;;;;;;;;;19.30;50.90;;;;;;5089602;28;20188;-72
2022/03/20 14:07:20;;;;;;;;;;;18.90;51.00;;;;;;5090151;28;19963;-72
2022/03/20 14:09:47;;;;;;;;;;;18.70;51.10;;;;;;5089849;28;19947;-72
2022/03/20 14:12:28;;;;;;;;;;;18.50;51.20;;;;;;5089600;28;20877;-71
2022/03/20 14:14:55;;;;;;;;;;;18.30;51.20;;;;;;5089713;28;20401;-72
2022/03/20 14:17:50;;;;;;;;;;;18.00;51.60;;;;;;5089761;28;19934;-71
2022/03/20 14:20:21;;;;;;;;;;;17.90;51.80;;;;;;5084683;28;20265;-72
2022/03/20 14:22:49;;;;;;;;;;;17.90;51.60;;;;;;5089251;28;20380;-72
2022/03/20 14:25:33;;;;;;;;;;;17.90;51.60;;;;;;5089051;28;19961;-72
2022/03/20 14:28:00;;;;;;;;;;;17.80;51.60;;;;;;5088934;28;19917;-72
2022/03/20 14:41:25;;;;;;;;;;;17.20;51.60;;;;;;5089413;28;20027;-72
2022/03/20 14:44:04;;;;;;;;;;;17.20;51.80;;;;;;5089212;28;19912;-72
2022/03/20 14:46:30;;;;;;;;;;;17.10;51.60;;;;;;5089163;28;20267;-72
2022/03/20 14:48:59;;;;;;;;;;;17.00;51.50;;;;;;5088794;28;19916;-72
2022/03/20 14:51:25;;;;;;;;;;;16.90;51.50;;;;;;5088722;28;19908;-72
2022/03/20 14:53:50;;;;;;;;;;;16.90;51.60;;;;;;5086609;28;20366;-72
2022/03/20 14:56:17;;;;;;;;;;;16.80;51.50;;;;;;5088038;28;20262;-73
2022/03/20 14:58:46;;;;;;;;;;;16.80;51.70;;;;;;5088514;28;20010;-72
2022/03/20 15:01:11;;;;;;;;;;;16.70;51.70;;;;;;5088437;28;19919;-73
2022/03/20 15:03:37;;;;;;;;;;;16.70;52.40;;;;;;5088123;28;20362;-72